Time;durP1;ratioP1;P1;durP2;ratioP2;P2;SDS_P1;SDS_P2;PMS_P1;PMS_P2;Temp;Humidity;BMP_temperature;BMP_pressure;BME280_temperature;BME280_humidity;BME280_pressure;Samples;Min_cycle;Max_cycle;Signal;HPM_P1;HPM_P2
2024/01/10 00:00:59;;;;;;;18.13;4.30;;;;;;;;;;5096529;28;20027;-59
2024/01/10 00:03:24;;;;;;;14.63;3.72;;;;;;;;;;5095939;28;20027;-60
2024/01/10 00:05:49;;;;;;;15.93;4.40;;;;;;;;;;5096755;28;20028;-59
2024/01/10 00:08:14;;;;;;;17.70;4.78;;;;;;;;;;5095054;28;20447;-60
2024/01/10 00:10:39;;;;;;;14.52;4.20;;;;;;;;;;5095906;28;20031;-59
2024/01/10 00:13:04;;;;;;;13.40;3.83;;;;;;;;;;5097589;28;20094;-59
2024/01/10 00:15:30;;;;;;;17.25;4.20;;;;;;;;;;5096352;28;20340;-60
2024/01/10 00:17:55;;;;;;;15.05;3.90;;;;;;;;;;5095035;28;20032;-59
2024/01/10 00:20:20;;;;;;;13.57;4.03;;;;;;;;;;5097522;28;20081;-59
2024/01/10 00:22:45;;;;;;;14.93;4.40;;;;;;;;;;5096278;28;20050;-60
2024/01/10 00:25:10;;;;;;;18.20;4.33;;;;;;;;;;5095488;28;20103;-60
2024/01/10 00:27:36;;;;;;;17.38;4.45;;;;;;;;;;5093699;28;20108;-59
2024/01/10 00:30:01;;;;;;;14.93;4.25;;;;;;;;;;5098793;28;20016;-60
2024/01/10 00:32:26;;;;;;;15.35;4.15;;;;;;;;;;5096959;28;20027;-60
2024/01/10 00:34:51;;;;;;;15.38;4.03;;;;;;;;;;5095968;28;20130;-60
2024/01/10 00:37:16;;;;;;;17.20;4.68;;;;;;;;;;5093430;28;20032;-61
2024/01/10 00:39:41;;;;;;;17.27;4.40;;;;;;;;;;5093230;28;20013;-61
2024/01/10 00:42:07;;;;;;;16.65;4.65;;;;;;;;;;5093687;28;20774;-61
2024/01/10 00:44:32;;;;;;;17.73;4.10;;;;;;;;;;5096407;28;20062;-61
2024/01/10 00:46:57;;;;;;;15.52;4.03;;;;;;;;;;5096991;28;20024;-60
2024/01/10 00:49:22;;;;;;;14.50;4.37;;;;;;;;;;5094603;28;20098;-61
2024/01/10 00:51:47;;;;;;;18.25;5.07;;;;;;;;;;5097714;28;20297;-61
2024/01/10 00:54:12;;;;;;;14.57;4.13;;;;;;;;;;5094251;28;20134;-60
2024/01/10 00:56:38;;;;;;;15.73;4.10;;;;;;;;;;5095561;28;20072;-59
2024/01/10 00:59:03;;;;;;;15.93;4.50;;;;;;;;;;5093160;28;20028;-60
2024/01/10 01:01:28;;;;;;;18.02;4.25;;;;;;;;;;5096417;28;20258;-60
2024/01/10 01:03:53;;;;;;;16.17;5.13;;;;;;;;;;5094374;28;20027;-60
2024/01/10 01:06:18;;;;;;;15.68;4.25;;;;;;;;;;5095810;28;20124;-61
2024/01/10 01:08:44;;;;;;;14.95;4.05;;;;;;;;;;5093112;28;20616;-60
2024/01/10 01:11:09;;;;;;;16.38;4.40;;;;;;;;;;5093543;28;20428;-60
2024/01/10 01:13:35;;;;;;;15.98;4.40;;;;;;;;;;5093499;28;20523;-61
2024/01/10 01:16:00;;;;;;;15.57;4.15;;;;;;;;;;5096761;28;20454;-60
2024/01/10 01:18:25;;;;;;;14.68;3.92;;;;;;;;;;5095404;28;20032;-60
2024/01/10 01:20:51;;;;;;;16.90;4.45;;;;;;;;;;5095077;28;20028;-60
2024/01/10 01:23:16;;;;;;;16.45;4.32;;;;;;;;;;5096100;28;20032;-60
2024/01/10 01:25:41;;;;;;;18.25;4.68;;;;;;;;;;5098981;28;20133;-60
2024/01/10 01:28:06;;;;;;;17.13;4.50;;;;;;;;;;5095562;28;20016;-60
2024/01/10 01:30:31;;;;;;;17.25;4.22;;;;;;;;;;5096971;28;20382;-61
2024/01/10 01:32:57;;;;;;;16.90;4.50;;;;;;;;;;5096615;28;20363;-60
2024/01/10 01:35:22;;;;;;;17.85;4.40;;;;;;;;;;5099397;27;20258;-60
2024/01/10 01:37:47;;;;;;;16.05;4.53;;;;;;;;;;5097485;28;20030;-60
2024/01/10 01:40:13;;;;;;;14.32;4.35;;;;;;;;;;5099166;28;20122;-60
2024/01/10 01:42:38;;;;;;;17.80;4.72;;;;;;;;;;5098940;28;20015;-60
2024/01/10 01:45:03;;;;;;;13.60;4.13;;;;;;;;;;5097967;28;20173;-60
2024/01/10 01:47:28;;;;;;;16.63;5.00;;;;;;;;;;5095740;28;20024;-59
2024/01/10 01:49:54;;;;;;;16.98;5.03;;;;;;;;;;5097993;28;20359;-59
2024/01/10 01:52:19;;;;;;;15.60;4.13;;;;;;;;;;5096220;28;20007;-60
2024/01/10 01:54:44;;;;;;;16.67;4.68;;;;;;;;;;5097053;28;20633;-60
2024/01/10 01:57:09;;;;;;;16.02;4.60;;;;;;;;;;5097526;28;20051;-61
2024/01/10 01:59:35;;;;;;;15.85;4.28;;;;;;;;;;5098374;28;20538;-60
2024/01/10 02:02:02;;;;;;;17.65;4.22;;;;;;;;;;5100773;28;20043;-60
2024/01/10 02:04:28;;;;;;;15.18;3.90;;;;;;;;;;5096334;28;20360;-60
2024/01/10 02:06:53;;;;;;;15.90;4.18;;;;;;;;;;5097234;28;20028;-59
2024/01/10 02:09:18;;;;;;;15.73;4.10;;;;;;;;;;5098097;28;20015;-61
2024/01/10 02:11:43;;;;;;;17.77;5.15;;;;;;;;;;5097645;28;20028;-60
2024/01/10 02:14:09;;;;;;;14.32;4.10;;;;;;;;;;5096662;28;20019;-60
2024/01/10 02:16:35;;;;;;;14.15;3.97;;;;;;;;;;5094432;28;20016;-60
2024/01/10 02:19:01;;;;;;;14.68;4.10;;;;;;;;;;5099386;27;20018;-60
2024/01/10 02:21:26;;;;;;;16.10;4.20;;;;;;;;;;5096235;28;20020;-59
2024/01/10 02:23:51;;;;;;;16.60;4.00;;;;;;;;;;5095917;28;20527;-59
2024/01/10 02:26:16;;;;;;;17.65;4.55;;;;;;;;;;5096161;28;20061;-60
2024/01/10 02:28:41;;;;;;;17.25;4.30;;;;;;;;;;5096183;28;20049;-60
2024/01/10 02:31:07;;;;;;;17.90;4.37;;;;;;;;;;5098269;28;20482;-60
2024/01/10 02:33:32;;;;;;;16.00;4.28;;;;;;;;;;5094874;28;20319;-60
2024/01/10 02:35:57;;;;;;;16.70;4.15;;;;;;;;;;5096601;28;20102;-59
2024/01/10 02:38:23;;;;;;;12.27;3.53;;;;;;;;;;5095011;28;20025;-60
2024/01/10 02:40:49;;;;;;;15.82;3.85;;;;;;;;;;5095901;28;20277;-60
2024/01/10 02:43:14;;;;;;;17.33;4.55;;;;;;;;;;5096342;28;20047;-60
2024/01/10 02:45:39;;;;;;;15.38;4.13;;;;;;;;;;5094081;28;20044;-59
2024/01/10 02:48:04;;;;;;;17.10;4.60;;;;;;;;;;5095045;28;20039;-59
2024/01/10 02:50:29;;;;;;;16.15;4.88;;;;;;;;;;5096927;28;20020;-59
2024/01/10 02:52:55;;;;;;;16.45;4.20;;;;;;;;;;5100637;28;20022;-60
2024/01/10 02:55:20;;;;;;;17.27;4.63;;;;;;;;;;5094495;28;20416;-58
2024/01/10 02:57:45;;;;;;;17.75;4.80;;;;;;;;;;5096310;28;20032;-59
2024/01/10 03:00:11;;;;;;;17.92;4.53;;;;;;;;;;5096203;28;20028;-59
2024/01/10 03:02:36;;;;;;;17.70;4.30;;;;;;;;;;5094884;28;20433;-59
2024/01/10 03:05:01;;;;;;;13.13;3.63;;;;;;;;;;5092834;28;20584;-59
2024/01/10 03:07:26;;;;;;;16.30;4.72;;;;;;;;;;5092767;28;20032;-59
2024/01/10 03:09:51;;;;;;;17.97;4.83;;;;;;;;;;5095367;28;20093;-59
2024/01/10 03:12:17;;;;;;;15.30;4.30;;;;;;;;;;5096246;28;20317;-59
2024/01/10 03:14:42;;;;;;;14.73;4.70;;;;;;;;;;5098253;28;20031;-59
2024/01/10 03:17:07;;;;;;;15.93;4.57;;;;;;;;;;5095545;28;20031;-59
2024/01/10 03:19:32;;;;;;;16.02;3.88;;;;;;;;;;5096226;28;20008;-59
2024/01/10 03:21:57;;;;;;;17.83;4.93;;;;;;;;;;5095709;28;20399;-59
2024/01/10 03:24:26;;;;;;;16.17;5.03;;;;;;;;;;5095948;28;20270;-59
2024/01/10 03:26:51;;;;;;;18.52;5.13;;;;;;;;;;5097589;28;20860;-59
2024/01/10 03:29:16;;;;;;;17.63;4.50;;;;;;;;;;5095734;28;20020;-58
2024/01/10 03:31:42;;;;;;;16.50;4.22;;;;;;;;;;5099703;28;20125;-59
2024/01/10 03:34:07;;;;;;;17.27;4.75;;;;;;;;;;5094901;28;20023;-59
2024/01/10 03:36:32;;;;;;;15.95;4.43;;;;;;;;;;5097799;28;20039;-59
2024/01/10 03:38:57;;;;;;;17.65;5.50;;;;;;;;;;5094365;28;20049;-59
2024/01/10 03:41:22;;;;;;;18.52;5.07;;;;;;;;;;5094905;28;20028;-59
2024/01/10 03:43:48;;;;;;;16.77;4.20;;;;;;;;;;5089468;28;20156;-60
2024/01/10 03:46:13;;;;;;;17.48;4.55;;;;;;;;;;5096080;28;20026;-59
2024/01/10 03:48:47;;;;;;;15.27;4.43;;;;;;;;;;5091833;28;20658;-59
2024/01/10 03:51:12;;;;;;;16.83;5.05;;;;;;;;;;5095134;28;20114;-60
2024/01/10 03:53:37;;;;;;;16.67;4.43;;;;;;;;;;5095238;28;20107;-59
2024/01/10 03:56:06;;;;;;;18.25;5.00;;;;;;;;;;5095128;28;20157;-59
2024/01/10 03:58:31;;;;;;;18.05;4.53;;;;;;;;;;5094666;28;20125;-59
2024/01/10 04:00:56;;;;;;;14.73;4.63;;;;;;;;;;5093634;28;20135;-59
2024/01/10 04:03:21;;;;;;;17.67;4.28;;;;;;;;;;5096050;28;20027;-59
2024/01/10 04:05:46;;;;;;;16.75;4.60;;;;;;;;;;5093763;28;20031;-59
2024/01/10 04:08:11;;;;;;;16.33;4.60;;;;;;;;;;5101170;28;20044;-59
2024/01/10 04:10:37;;;;;;;20.15;4.55;;;;;;;;;;5095986;28;20016;-59
2024/01/10 04:13:02;;;;;;;16.58;4.68;;;;;;;;;;5096344;28;20028;-59
2024/01/10 04:15:27;;;;;;;19.08;4.53;;;;;;;;;;5095195;28;20012;-59
2024/01/10 04:17:52;;;;;;;18.48;4.90;;;;;;;;;;5091837;28;20019;-59
2024/01/10 04:20:17;;;;;;;16.13;4.20;;;;;;;;;;5095244;28;20027;-58
2024/01/10 04:22:43;;;;;;;17.55;4.15;;;;;;;;;;5099223;28;20301;-59
2024/01/10 04:25:08;;;;;;;13.82;3.97;;;;;;;;;;5090709;28;20035;-60
2024/01/10 04:27:33;;;;;;;19.88;4.97;;;;;;;;;;5096869;28;20032;-59
2024/01/10 04:29:58;;;;;;;15.15;4.28;;;;;;;;;;5091907;28;20027;-60
2024/01/10 04:32:24;;;;;;;17.00;4.53;;;;;;;;;;5095905;28;20818;-60
2024/01/10 04:34:49;;;;;;;16.92;4.40;;;;;;;;;;5095166;28;20111;-59
2024/01/10 04:37:15;;;;;;;15.35;4.32;;;;;;;;;;5095087;28;20100;-59
2024/01/10 04:39:42;;;;;;;15.68;4.22;;;;;;;;;;5093278;28;20023;-60
2024/01/10 04:42:07;;;;;;;16.88;3.95;;;;;;;;;;5095996;28;20020;-60
2024/01/10 04:44:33;;;;;;;16.75;4.65;;;;;;;;;;5094493;28;20050;-60
2024/01/10 04:46:58;;;;;;;15.73;4.15;;;;;;;;;;5095261;28;20475;-60
2024/01/10 04:49:23;;;;;;;16.20;4.63;;;;;;;;;;5094963;28;20149;-60
2024/01/10 04:51:49;;;;;;;16.17;4.88;;;;;;;;;;5095275;28;20076;-60
2024/01/10 04:54:14;;;;;;;15.60;4.13;;;;;;;;;;5092885;28;20137;-61
2024/01/10 04:56:40;;;;;;;15.35;4.65;;;;;;;;;;5098783;28;20453;-61
2024/01/10 04:59:05;;;;;;;15.77;4.07;;;;;;;;;;5099822;28;20440;-61
2024/01/10 05:01:30;;;;;;;18.17;4.53;;;;;;;;;;5098416;28;20467;-61
2024/01/10 05:03:55;;;;;;;14.38;4.10;;;;;;;;;;5098841;28;20332;-61
2024/01/10 05:06:20;;;;;;;17.83;4.97;;;;;;;;;;5099495;28;20028;-60
2024/01/10 05:08:46;;;;;;;15.18;4.03;;;;;;;;;;5102479;28;20841;-60
2024/01/10 05:11:11;;;;;;;18.33;4.57;;;;;;;;;;5096964;28;20023;-60
2024/01/10 05:13:36;;;;;;;16.50;4.65;;;;;;;;;;5102125;28;20116;-60
2024/01/10 05:16:02;;;;;;;16.70;4.55;;;;;;;;;;5095882;28;20569;-59
2024/01/10 05:18:27;;;;;;;18.55;4.22;;;;;;;;;;5101466;28;20028;-59
2024/01/10 05:20:52;;;;;;;18.67;5.18;;;;;;;;;;5097502;28;20024;-60
2024/01/10 05:23:17;;;;;;;17.27;4.85;;;;;;;;;;5100353;28;20077;-59
2024/01/10 05:25:43;;;;;;;19.35;5.40;;;;;;;;;;5097366;28;20100;-60
2024/01/10 05:28:08;;;;;;;17.92;4.63;;;;;;;;;;5098987;28;20085;-60
2024/01/10 05:30:33;;;;;;;18.60;4.88;;;;;;;;;;5102120;28;20020;-59
2024/01/10 05:32:59;;;;;;;18.50;4.68;;;;;;;;;;5100520;28;20016;-60
2024/01/10 05:35:28;;;;;;;14.73;4.22;;;;;;;;;;5098905;28;20194;-60
2024/01/10 05:37:54;;;;;;;15.43;4.10;;;;;;;;;;5099058;28;20069;-60
2024/01/10 05:40:20;;;;;;;16.83;4.95;;;;;;;;;;5094022;28;20019;-61
2024/01/10 05:42:45;;;;;;;16.67;4.82;;;;;;;;;;5097229;28;20020;-60
2024/01/10 05:45:10;;;;;;;18.15;4.55;;;;;;;;;;5095700;28;20139;-60
2024/01/10 05:47:35;;;;;;;18.95;5.25;;;;;;;;;;5100134;28;20445;-59
2024/01/10 05:50:01;;;;;;;14.35;4.38;;;;;;;;;;5100712;28;20035;-59
2024/01/10 05:52:26;;;;;;;19.42;5.10;;;;;;;;;;5097703;28;20476;-61
2024/01/10 05:54:52;;;;;;;17.00;4.68;;;;;;;;;;5098790;28;20584;-59
2024/01/10 05:57:17;;;;;;;16.48;4.60;;;;;;;;;;5098064;28;20028;-61
2024/01/10 05:59:42;;;;;;;19.50;4.78;;;;;;;;;;5093448;28;20050;-60
2024/01/10 06:02:07;;;;;;;16.75;4.55;;;;;;;;;;5096803;28;20023;-61
2024/01/10 06:04:32;;;;;;;18.85;5.70;;;;;;;;;;5096209;28;20019;-60
2024/01/10 06:06:58;;;;;;;17.15;5.32;;;;;;;;;;5100787;28;20031;-61
2024/01/10 06:09:23;;;;;;;20.13;4.95;;;;;;;;;;5094419;28;20016;-61
2024/01/10 06:11:48;;;;;;;15.82;4.95;;;;;;;;;;5090465;28;20069;-60
2024/01/10 06:14:14;;;;;;;18.45;4.95;;;;;;;;;;5095387;28;20054;-59
2024/01/10 06:16:39;;;;;;;14.98;4.57;;;;;;;;;;5096164;28;20023;-61
2024/01/10 06:19:04;;;;;;;18.35;5.40;;;;;;;;;;5095742;28;20019;-60
2024/01/10 06:21:29;;;;;;;18.23;4.75;;;;;;;;;;5096213;28;20019;-60
2024/01/10 06:23:55;;;;;;;17.98;4.78;;;;;;;;;;5093570;28;20020;-60
2024/01/10 06:26:20;;;;;;;17.73;5.32;;;;;;;;;;5091400;28;20110;-60
2024/01/10 06:28:45;;;;;;;19.23;5.53;;;;;;;;;;5095556;28;20032;-60
2024/01/10 06:31:10;;;;;;;21.73;5.70;;;;;;;;;;5096710;28;20387;-59
2024/01/10 06:33:36;;;;;;;19.70;5.22;;;;;;;;;;5096746;28;20012;-59
2024/01/10 06:36:01;;;;;;;15.88;4.65;;;;;;;;;;5093128;28;20031;-59
2024/01/10 06:38:26;;;;;;;19.48;5.22;;;;;;;;;;5093567;28;20090;-59
2024/01/10 06:40:51;;;;;;;17.85;4.57;;;;;;;;;;5095296;28;20022;-59
2024/01/10 06:43:16;;;;;;;19.90;5.70;;;;;;;;;;5099017;28;20012;-60
2024/01/10 06:45:42;;;;;;;17.30;5.07;;;;;;;;;;5094520;28;20044;-60
2024/01/10 06:48:07;;;;;;;18.67;5.15;;;;;;;;;;5098120;28;20015;-60
2024/01/10 06:50:32;;;;;;;18.65;4.70;;;;;;;;;;5096922;28;20027;-60
2024/01/10 06:52:57;;;;;;;16.57;4.63;;;;;;;;;;5094045;28;20027;-60
2024/01/10 06:55:24;;;;;;;15.88;4.95;;;;;;;;;;5093714;28;20277;-60
2024/01/10 06:57:51;;;;;;;17.33;4.55;;;;;;;;;;5092590;28;20054;-60
2024/01/10 07:00:17;;;;;;;19.98;4.93;;;;;;;;;;5093458;28;20027;-60
2024/01/10 07:02:42;;;;;;;18.77;5.18;;;;;;;;;;5095448;28;20024;-61
2024/01/10 07:05:08;;;;;;;17.50;5.13;;;;;;;;;;5103133;28;20069;-60
2024/01/10 07:07:35;;;;;;;18.70;4.95;;;;;;;;;;5093314;28;20028;-60
2024/01/10 07:10:00;;;;;;;17.08;4.78;;;;;;;;;;5100473;28;20050;-61
2024/01/10 07:12:25;;;;;;;19.73;5.03;;;;;;;;;;5097344;28;20052;-60
2024/01/10 07:14:51;;;;;;;19.42;5.88;;;;;;;;;;5101003;28;20027;-60
2024/01/10 07:17:16;;;;;;;20.85;5.85;;;;;;;;;;5086728;28;20103;-60
2024/01/10 07:19:41;;;;;;;19.63;5.28;;;;;;;;;;5095618;28;20451;-60
2024/01/10 07:22:08;;;;;;;18.33;5.68;;;;;;;;;;5095470;28;20019;-60
2024/01/10 07:24:34;;;;;;;18.48;5.47;;;;;;;;;;5105845;28;20048;-60
2024/01/10 07:26:59;;;;;;;18.67;4.97;;;;;;;;;;5096764;28;20091;-60
2024/01/10 07:29:24;;;;;;;18.80;5.40;;;;;;;;;;5107001;28;20390;-59
2024/01/10 07:31:52;;;;;;;19.88;5.60;;;;;;;;;;5099696;28;20047;-60
2024/01/10 07:34:17;;;;;;;18.67;5.28;;;;;;;;;;5095463;28;20016;-61
2024/01/10 07:36:43;;;;;;;18.63;4.97;;;;;;;;;;5092825;28;20012;-60
2024/01/10 07:39:08;;;;;;;18.05;5.25;;;;;;;;;;5096248;28;20779;-60
2024/01/10 07:41:33;;;;;;;20.67;5.55;;;;;;;;;;5093244;28;20459;-60
2024/01/10 07:43:58;;;;;;;19.33;5.47;;;;;;;;;;5094610;28;20030;-60
2024/01/10 07:46:26;;;;;;;20.50;5.70;;;;;;;;;;5093331;28;20432;-61
2024/01/10 07:48:52;;;;;;;18.13;5.28;;;;;;;;;;5098224;28;20019;-61
2024/01/10 07:51:17;;;;;;;19.85;6.00;;;;;;;;;;5095752;28;20012;-60
2024/01/10 07:53:42;;;;;;;22.45;5.88;;;;;;;;;;5104492;28;20057;-60
2024/01/10 07:56:07;;;;;;;16.13;5.20;;;;;;;;;;5100522;28;20048;-60
2024/01/10 07:58:32;;;;;;;18.92;5.68;;;;;;;;;;5094933;28;20261;-61
2024/01/10 08:00:57;;;;;;;20.30;5.47;;;;;;;;;;5094174;28;20726;-61
2024/01/10 08:03:23;;;;;;;19.02;5.55;;;;;;;;;;5097927;28;20467;-60
2024/01/10 08:05:48;;;;;;;21.23;5.95;;;;;;;;;;5094560;28;20042;-60
2024/01/10 08:08:14;;;;;;;20.20;5.97;;;;;;;;;;5094307;28;20470;-61
2024/01/10 08:10:39;;;;;;;20.88;5.80;;;;;;;;;;5095670;28;20544;-60
2024/01/10 08:13:05;;;;;;;16.38;4.68;;;;;;;;;;5095558;28;20012;-60
2024/01/10 08:15:30;;;;;;;19.92;5.93;;;;;;;;;;5096440;28;20386;-59
2024/01/10 08:17:55;;;;;;;21.08;6.07;;;;;;;;;;5097267;28;20045;-60
2024/01/10 08:20:20;;;;;;;24.33;7.00;;;;;;;;;;5096814;28;20273;-60
2024/01/10 08:22:46;;;;;;;20.42;6.22;;;;;;;;;;5095195;28;20048;-59
2024/01/10 08:25:12;;;;;;;19.30;6.10;;;;;;;;;;5091816;28;20035;-59
2024/01/10 08:27:37;;;;;;;20.45;5.57;;;;;;;;;;5091314;28;20023;-60
2024/01/10 08:30:04;;;;;;;18.40;5.40;;;;;;;;;;5097741;28;20027;-59
2024/01/10 08:32:29;;;;;;;20.35;5.85;;;;;;;;;;5100234;28;20023;-60
2024/01/10 08:34:55;;;;;;;21.35;6.30;;;;;;;;;;5096708;28;20400;-59
2024/01/10 08:37:20;;;;;;;20.83;6.00;;;;;;;;;;5098719;28;20543;-60
2024/01/10 08:39:45;;;;;;;20.90;6.30;;;;;;;;;;5100511;28;20380;-58
2024/01/10 08:42:11;;;;;;;20.77;5.95;;;;;;;;;;5098006;28;20015;-58
2024/01/10 08:44:36;;;;;;;18.63;5.95;;;;;;;;;;5099247;28;20051;-59
2024/01/10 08:47:02;;;;;;;19.73;5.82;;;;;;;;;;5097781;28;20032;-59
2024/01/10 08:49:27;;;;;;;18.90;6.43;;;;;;;;;;5098892;27;20446;-59
2024/01/10 08:51:53;;;;;;;22.75;7.70;;;;;;;;;;5099429;28;20053;-58
2024/01/10 08:54:19;;;;;;;24.33;8.90;;;;;;;;;;5097944;28;20102;-59
2024/01/10 08:56:45;;;;;;;22.52;6.75;;;;;;;;;;5097053;28;20144;-59
2024/01/10 08:59:13;;;;;;;20.33;6.55;;;;;;;;;;5096122;28;20469;-59
2024/01/10 09:01:38;;;;;;;19.67;5.85;;;;;;;;;;5099057;28;20023;-59
2024/01/10 09:04:04;;;;;;;21.60;6.35;;;;;;;;;;5102189;28;20092;-60
2024/01/10 09:06:31;;;;;;;21.80;5.88;;;;;;;;;;5095938;28;20028;-58
2024/01/10 09:08:56;;;;;;;22.10;6.22;;;;;;;;;;5098361;28;20027;-58
2024/01/10 09:11:21;;;;;;;20.08;6.00;;;;;;;;;;5096447;28;20113;-59
2024/01/10 09:13:46;;;;;;;19.98;6.05;;;;;;;;;;5096395;28;20069;-59
2024/01/10 09:16:12;;;;;;;20.45;6.00;;;;;;;;;;5097574;28;20031;-59
2024/01/10 09:18:38;;;;;;;22.70;6.65;;;;;;;;;;5104108;28;20026;-60
2024/01/10 09:21:04;;;;;;;21.35;6.50;;;;;;;;;;5097485;28;20016;-59
2024/01/10 09:23:29;;;;;;;19.90;5.88;;;;;;;;;;5099960;28;20680;-60
2024/01/10 09:25:54;;;;;;;21.35;6.43;;;;;;;;;;5099207;28;20035;-59
2024/01/10 09:28:19;;;;;;;21.38;6.57;;;;;;;;;;5094367;28;20096;-60
2024/01/10 09:30:45;;;;;;;21.85;6.28;;;;;;;;;;5098182;28;20491;-59
2024/01/10 09:33:10;;;;;;;21.67;6.63;;;;;;;;;;5109646;28;20027;-60
2024/01/10 09:35:35;;;;;;;21.30;6.28;;;;;;;;;;5103800;28;20035;-60
2024/01/10 09:38:00;;;;;;;21.08;6.95;;;;;;;;;;5104928;28;20023;-59
2024/01/10 09:40:27;;;;;;;19.70;6.45;;;;;;;;;;5097586;28;20090;-59
2024/01/10 09:42:54;;;;;;;20.05;6.75;;;;;;;;;;5097167;28;20416;-57
2024/01/10 09:45:20;;;;;;;22.30;7.13;;;;;;;;;;5097887;28;20051;-59
2024/01/10 09:47:48;;;;;;;20.42;6.22;;;;;;;;;;5096770;28;20031;-59
2024/01/10 09:50:14;;;;;;;22.42;6.68;;;;;;;;;;5095270;28;20020;-59
2024/01/10 09:52:41;;;;;;;22.63;7.00;;;;;;;;;;5094397;28;20039;-59
2024/01/10 09:55:07;;;;;;;22.10;6.80;;;;;;;;;;5095941;28;20020;-59
2024/01/10 09:57:34;;;;;;;23.33;7.10;;;;;;;;;;5094518;28;20050;-58
2024/01/10 10:00:01;;;;;;;25.35;7.22;;;;;;;;;;5098848;28;20031;-60
2024/01/10 10:02:27;;;;;;;22.75;6.68;;;;;;;;;;5098587;28;20552;-59
2024/01/10 10:05:03;;;;;;;22.20;6.72;;;;;;;;;;5099609;28;20070;-59
2024/01/10 10:07:29;;;;;;;21.02;6.82;;;;;;;;;;5097698;28;20043;-59
2024/01/10 10:09:56;;;;;;;21.00;6.45;;;;;;;;;;5097104;28;20031;-59
2024/01/10 10:12:21;;;;;;;22.80;7.00;;;;;;;;;;5099980;28;20020;-60
2024/01/10 10:14:46;;;;;;;20.50;6.85;;;;;;;;;;5098222;28;20088;-60
2024/01/10 10:17:18;;;;;;;21.75;7.25;;;;;;;;;;5098599;28;20020;-60
2024/01/10 10:19:44;;;;;;;22.10;8.00;;;;;;;;;;5086397;28;20050;-59
2024/01/10 10:22:10;;;;;;;22.88;7.13;;;;;;;;;;5096979;28;20083;-60
2024/01/10 10:24:35;;;;;;;23.55;7.38;;;;;;;;;;5100443;28;20026;-59
2024/01/10 10:27:00;;;;;;;21.88;6.88;;;;;;;;;;5104093;28;20055;-59
2024/01/10 10:29:25;;;;;;;21.42;7.53;;;;;;;;;;5092901;28;20040;-59
2024/01/10 10:31:51;;;;;;;21.48;6.97;;;;;;;;;;5091299;28;20020;-60
2024/01/10 10:34:20;;;;;;;23.17;7.90;;;;;;;;;;5091244;28;20024;-60
2024/01/10 10:36:46;;;;;;;23.42;7.00;;;;;;;;;;5091390;28;20107;-60
2024/01/10 10:39:15;;;;;;;22.83;7.38;;;;;;;;;;5091243;28;20036;-61
2024/01/10 10:41:41;;;;;;;23.33;7.88;;;;;;;;;;5091181;28;20017;-59
2024/01/10 10:44:09;;;;;;;22.67;7.90;;;;;;;;;;5090505;28;20514;-59
2024/01/10 10:46:35;;;;;;;23.45;7.32;;;;;;;;;;5090609;28;20047;-59
2024/01/10 10:49:04;;;;;;;22.52;7.38;;;;;;;;;;5090117;28;20106;-59
2024/01/10 10:51:33;;;;;;;24.25;7.97;;;;;;;;;;5089861;28;20040;-59
2024/01/10 10:53:59;;;;;;;23.27;7.85;;;;;;;;;;5089541;28;20022;-60
2024/01/10 10:56:25;;;;;;;23.25;7.38;;;;;;;;;;5091462;28;20417;-60
2024/01/10 10:58:51;;;;;;;24.33;8.10;;;;;;;;;;5111565;28;20051;-60
2024/01/10 11:01:16;;;;;;;22.88;8.00;;;;;;;;;;5109683;28;20062;-59
2024/01/10 11:03:47;;;;;;;23.17;7.65;;;;;;;;;;5111639;28;20024;-58
2024/01/10 11:06:12;;;;;;;25.05;8.70;;;;;;;;;;5111730;28;20039;-60
2024/01/10 11:08:43;;;;;;;22.70;8.05;;;;;;;;;;5110748;28;20023;-59
2024/01/10 11:11:27;;;;;;;24.13;8.50;;;;;;;;;;5111951;28;20443;-58
2024/01/10 11:14:11;;;;;;;26.08;8.40;;;;;;;;;;5103523;28;20059;-58
2024/01/10 11:16:50;;;;;;;23.80;7.93;;;;;;;;;;5078134;28;20040;-59
2024/01/10 11:19:21;;;;;;;27.23;8.88;;;;;;;;;;5070510;28;20028;-58
2024/01/10 11:21:49;;;;;;;22.48;7.82;;;;;;;;;;5071017;28;20035;-59
2024/01/10 11:24:14;;;;;;;25.92;8.35;;;;;;;;;;5071630;28;20491;-60
2024/01/10 11:26:40;;;;;;;25.08;8.10;;;;;;;;;;5087193;28;20117;-60
2024/01/10 11:29:05;;;;;;;25.15;8.50;;;;;;;;;;5092511;28;20020;-60
2024/01/10 11:31:32;;;;;;;27.05;8.48;;;;;;;;;;5082609;28;20468;-60
2024/01/10 11:34:00;;;;;;;25.17;8.45;;;;;;;;;;5086428;28;20020;-60
2024/01/10 11:36:26;;;;;;;23.52;8.05;;;;;;;;;;5081142;28;20089;-60
2024/01/10 11:38:51;;;;;;;23.67;8.38;;;;;;;;;;5088775;28;20040;-60
2024/01/10 11:41:21;;;;;;;25.38;9.07;;;;;;;;;;5083549;28;20094;-60
2024/01/10 11:43:46;;;;;;;21.70;7.60;;;;;;;;;;5070348;28;20089;-60
2024/01/10 11:46:12;;;;;;;21.40;7.55;;;;;;;;;;5072525;28;20056;-61
2024/01/10 11:48:38;;;;;;;23.75;8.13;;;;;;;;;;5087802;28;20024;-60
2024/01/10 11:51:04;;;;;;;25.38;8.82;;;;;;;;;;5075236;28;20029;-59
2024/01/10 11:53:50;;;;;;;24.63;8.70;;;;;;;;;;5077829;28;20027;-60
2024/01/10 11:56:16;;;;;;;24.58;8.55;;;;;;;;;;5078743;28;20380;-59
2024/01/10 11:58:56;;;;;;;25.10;8.35;;;;;;;;;;5087799;28;20019;-60
2024/01/10 12:01:25;;;;;;;26.10;8.85;;;;;;;;;;5096736;28;20459;-60
2024/01/10 12:03:51;;;;;;;25.50;8.15;;;;;;;;;;5093424;28;20512;-60
2024/01/10 12:06:17;;;;;;;34.33;13.88;;;;;;;;;;5090670;28;20555;-60
2024/01/10 12:08:43;;;;;;;24.30;8.77;;;;;;;;;;5094640;28;20019;-60
2024/01/10 12:11:08;;;;;;;24.57;8.93;;;;;;;;;;5092036;28;20054;-60
2024/01/10 12:13:34;;;;;;;25.80;9.15;;;;;;;;;;5094161;28;20278;-60
2024/01/10 12:15:59;;;;;;;24.88;9.05;;;;;;;;;;5093556;28;20019;-61
2024/01/10 12:18:25;;;;;;;24.13;8.77;;;;;;;;;;5091762;28;20060;-60
2024/01/10 12:20:50;;;;;;;25.23;8.15;;;;;;;;;;5093722;28;20024;-59
2024/01/10 12:23:15;;;;;;;23.55;8.10;;;;;;;;;;5096330;28;20102;-60
2024/01/10 12:25:40;;;;;;;24.55;8.55;;;;;;;;;;5094658;28;20072;-59
2024/01/10 12:28:05;;;;;;;27.65;9.25;;;;;;;;;;5093857;28;20169;-60
2024/01/10 12:30:31;;;;;;;26.30;8.93;;;;;;;;;;5095935;28;20044;-60
2024/01/10 12:33:00;;;;;;;23.17;8.53;;;;;;;;;;5093123;28;20717;-60
2024/01/10 12:35:25;;;;;;;25.50;9.52;;;;;;;;;;5094071;28;20281;-60
2024/01/10 12:37:56;;;;;;;22.83;8.48;;;;;;;;;;5099281;28;20043;-60
2024/01/10 12:40:21;;;;;;;23.17;7.95;;;;;;;;;;5108431;28;20687;-60
2024/01/10 12:42:47;;;;;;;23.35;8.38;;;;;;;;;;5095748;28;20020;-60
2024/01/10 12:45:21;;;;;;;22.85;8.05;;;;;;;;;;5090150;28;20044;-60
2024/01/10 12:47:47;;;;;;;24.23;8.38;;;;;;;;;;5095432;28;20031;-60
2024/01/10 12:50:12;;;;;;;24.10;8.63;;;;;;;;;;5101980;28;20016;-60
2024/01/10 12:52:39;;;;;;;25.90;9.70;;;;;;;;;;5099821;28;20322;-60
2024/01/10 12:55:05;;;;;;;24.42;8.80;;;;;;;;;;5094414;28;20042;-61
2024/01/10 12:57:30;;;;;;;24.52;9.23;;;;;;;;;;5104883;28;21514;-61
2024/01/10 12:59:55;;;;;;;25.15;8.90;;;;;;;;;;5102315;28;20020;-60
2024/01/10 13:02:21;;;;;;;23.98;8.68;;;;;;;;;;5090826;28;20027;-60
2024/01/10 13:04:46;;;;;;;24.33;8.55;;;;;;;;;;5098195;28;20142;-59
2024/01/10 13:07:12;;;;;;;24.02;8.32;;;;;;;;;;5093571;28;20032;-60
2024/01/10 13:09:37;;;;;;;24.42;8.25;;;;;;;;;;5093901;28;20020;-61
2024/01/10 13:12:03;;;;;;;24.83;8.68;;;;;;;;;;5096651;28;20019;-59
2024/01/10 13:14:31;;;;;;;23.35;8.23;;;;;;;;;;5094752;28;20495;-59
2024/01/10 13:16:56;;;;;;;25.38;8.23;;;;;;;;;;5106673;28;20027;-61
2024/01/10 13:19:21;;;;;;;24.50;8.32;;;;;;;;;;5101489;28;20020;-61
2024/01/10 13:21:46;;;;;;;26.35;8.10;;;;;;;;;;5094764;28;20020;-61
2024/01/10 13:24:11;;;;;;;24.93;8.53;;;;;;;;;;5103531;28;20047;-59
2024/01/10 13:26:36;;;;;;;23.30;7.70;;;;;;;;;;5102047;28;20295;-59
2024/01/10 13:29:02;;;;;;;23.65;8.00;;;;;;;;;;5105984;28;20269;-59
2024/01/10 13:31:28;;;;;;;23.92;8.18;;;;;;;;;;5105178;27;20265;-60
2024/01/10 13:33:54;;;;;;;23.33;8.60;;;;;;;;;;5095873;28;20146;-60
2024/01/10 13:36:19;;;;;;;25.08;8.98;;;;;;;;;;5099427;28;20060;-60
2024/01/10 13:38:44;;;;;;;24.17;8.30;;;;;;;;;;5099159;28;20012;-60
2024/01/10 13:41:10;;;;;;;24.10;8.23;;;;;;;;;;5097193;28;20012;-60
2024/01/10 13:43:35;;;;;;;25.83;9.55;;;;;;;;;;5096332;28;20019;-61
2024/01/10 13:46:01;;;;;;;24.25;8.32;;;;;;;;;;5095172;28;20131;-60
2024/01/10 13:48:26;;;;;;;24.60;8.40;;;;;;;;;;5100598;28;20466;-61
2024/01/10 13:50:52;;;;;;;25.00;8.85;;;;;;;;;;5098059;28;20062;-60
2024/01/10 13:53:17;;;;;;;24.05;8.25;;;;;;;;;;5096457;28;20418;-60
2024/01/10 13:55:42;;;;;;;25.50;8.98;;;;;;;;;;5096795;28;20076;-60
2024/01/10 13:58:07;;;;;;;23.95;8.38;;;;;;;;;;5093299;28;20046;-60
2024/01/10 14:00:33;;;;;;;24.15;8.90;;;;;;;;;;5107774;28;20031;-60
2024/01/10 14:03:01;;;;;;;24.90;8.40;;;;;;;;;;5099972;28;20847;-60
2024/01/10 14:05:27;;;;;;;24.42;8.07;;;;;;;;;;5093217;28;20028;-61
2024/01/10 14:07:52;;;;;;;22.45;7.72;;;;;;;;;;5096231;28;20536;-60
2024/01/10 14:10:18;;;;;;;24.98;8.27;;;;;;;;;;5096267;28;20028;-60
2024/01/10 14:12:44;;;;;;;22.17;7.72;;;;;;;;;;5095037;28;20015;-60
2024/01/10 14:15:09;;;;;;;23.98;8.35;;;;;;;;;;5091786;28;20085;-61
2024/01/10 14:17:35;;;;;;;25.08;8.80;;;;;;;;;;5092925;28;20072;-59
2024/01/10 14:20:00;;;;;;;20.73;7.65;;;;;;;;;;5095476;28;20037;-59
2024/01/10 14:22:25;;;;;;;25.45;8.00;;;;;;;;;;5096633;28;20020;-61